Time;durP1;ratioP1;P1;durP2;ratioP2;P2;SDS_P1;SDS_P2;PMS_P1;PMS_P2;Temp;Humidity;BMP_temperature;BMP_pressure;BME280_temperature;BME280_humidity;BME280_pressure;Samples;Min_cycle;Max_cycle;Signal;HPM_P1;HPM_P2
2022/04/11 00:01:03;;;;;;;10.57;6.47;;;;;;;3.06;76.42;100793.69;4920582;29;20040;-89
2022/04/11 00:03:30;;;;;;;11.30;6.00;;;;;;;3.20;76.93;100815.34;4902343;29;20052;-93
2022/04/11 00:05:58;;;;;;;12.30;7.00;;;;;;;3.34;76.82;100841.38;4927286;29;20068;-89
2022/04/11 00:08:29;;;;;;;9.38;6.10;;;;;;;3.42;77.09;100850.03;4925140;29;20146;-91
2022/04/11 00:10:57;;;;;;;9.23;6.78;;;;;;;3.43;77.26;100846.53;4927997;29;20112;-91
2022/04/11 00:13:26;;;;;;;12.88;6.72;;;;;;;3.19;77.04;100821.47;4922327;29;20079;-90
2022/04/11 00:16:07;;;;;;;8.57;6.13;;;;;;;2.88;78.12;100776.41;4919292;29;20062;-90
2022/04/11 00:18:35;;;;;;;10.27;6.75;;;;;;;3.33;78.06;100852.72;4930622;29;20032;-91
2022/04/11 00:21:04;;;;;;;16.05;6.43;;;;;;;2.93;77.95;100779.88;4935775;29;20067;-90
2022/04/11 00:23:33;;;;;;;11.73;6.55;;;;;;;3.25;77.69;100831.88;4920288;29;20044;-91
2022/04/11 00:26:00;;;;;;;10.77;6.90;;;;;;;3.33;77.62;100845.75;4920656;29;20114;-92
2022/04/11 00:28:27;;;;;;;11.05;6.07;;;;;;;2.90;77.70;100772.03;4920700;29;20112;-91
2022/04/11 00:30:56;;;;;;;8.60;6.28;;;;;;;2.88;77.59;100768.56;4917720;29;20067;-90
2022/04/11 00:33:27;;;;;;;11.30;7.05;;;;;;;3.22;78.24;100834.53;4912147;29;20070;-91
2022/04/11 00:35:54;;;;;;;10.52;7.28;;;;;;;3.09;78.55;100820.69;4920333;29;20056;-91
2022/04/11 00:38:27;;;;;;;10.85;7.00;;;;;;;3.14;78.83;100818.91;4922559;29;20079;-91
2022/04/11 00:40:59;;;;;;;10.65;7.10;;;;;;;3.18;79.69;100823.22;4920899;29;20119;-90
2022/04/11 00:43:30;;;;;;;12.23;7.20;;;;;;;3.23;79.15;100825.78;4915197;29;20060;-91
2022/04/11 00:45:57;;;;;;;11.80;7.43;;;;;;;2.93;80.44;100760.69;4922453;29;20437;-90
2022/04/11 00:48:28;;;;;;;10.10;7.47;;;;;;;3.16;79.60;100814.50;4914793;29;20052;-91
2022/04/11 00:51:00;;;;;;;11.05;7.55;;;;;;;2.99;80.77;100777.16;4921420;29;20052;-92
2022/04/11 00:53:31;;;;;;;9.85;7.05;;;;;;;3.16;80.86;100806.66;4922425;29;20094;-90
2022/04/11 00:56:01;;;;;;;14.10;8.23;;;;;;;3.05;80.59;100777.13;4915829;29;20120;-91
2022/04/11 00:58:30;;;;;;;12.30;7.90;;;;;;;3.19;80.91;100805.75;4924030;29;20048;-91
2022/04/11 01:01:01;;;;;;;11.13;8.15;;;;;;;3.07;81.29;100791.06;4935365;29;20089;-91
2022/04/11 01:03:33;;;;;;;12.63;8.20;;;;;;;3.25;81.75;100823.16;4927317;29;20059;-90
2022/04/11 01:06:02;;;;;;;9.98;6.60;;;;;;;3.09;81.72;100786.69;4920812;29;20052;-89
2022/04/11 01:08:29;;;;;;;10.23;6.80;;;;;;;3.12;81.42;100809.34;4917524;29;20044;-90
2022/04/11 01:10:57;;;;;;;12.38;7.93;;;;;;;3.25;81.82;100836.25;4914963;29;20052;-91
2022/04/11 01:13:28;;;;;;;12.20;7.82;;;;;;;3.00;82.23;100797.22;4911964;29;20060;-90
2022/04/11 01:16:01;;;;;;;11.40;7.70;;;;;;;3.03;82.80;100804.19;4917027;29;20135;-90
2022/04/11 01:18:28;;;;;;;14.18;8.27;;;;;;;3.08;82.83;100811.13;4914809;29;20549;-90
2022/04/11 01:20:57;;;;;;;10.40;7.43;;;;;;;3.26;83.39;100841.47;4921529;29;20087;-91
2022/04/11 01:23:26;;;;;;;10.50;7.82;;;;;;;3.01;83.07;100798.97;4913406;29;20052;-91
2022/04/11 01:25:54;;;;;;;10.57;7.82;;;;;;;3.06;83.54;100809.38;4919746;29;20056;-90
2022/04/11 01:28:27;;;;;;;13.52;8.15;;;;;;;3.01;83.39;100809.44;4919564;29;20091;-90
2022/04/11 01:30:55;;;;;;;14.32;9.02;;;;;;;2.92;83.16;100801.69;4922462;29;20084;-90
2022/04/11 01:33:28;;;;;;;10.65;7.85;;;;;;;3.00;83.98;100815.53;4909927;29;20077;-91
2022/04/11 01:35:56;;;;;;;11.02;7.72;;;;;;;2.96;84.12;100792.06;4917799;29;20417;-90
2022/04/11 01:38:23;;;;;;;12.95;8.60;;;;;;;3.05;84.47;100824.22;4918519;29;20084;-90
2022/04/11 01:40:52;;;;;;;13.43;8.52;;;;;;;2.83;84.95;100771.22;4920816;29;20124;-90
2022/04/11 01:43:32;;;;;;;14.18;8.90;;;;;;;3.07;85.17;100814.59;4921800;29;20051;-92
2022/04/11 01:46:01;;;;;;;13.57;9.27;;;;;;;3.23;85.37;100832.78;4903987;29;20056;-90
2022/04/11 01:48:29;;;;;;;14.77;9.77;;;;;;;2.95;85.43;100793.81;4917868;29;20063;-91
2022/04/11 01:50:56;;;;;;;11.80;9.18;;;;;;;2.76;86.18;100763.47;4920512;29;20052;-91
2022/04/11 01:53:28;;;;;;;13.30;9.15;;;;;;;3.03;86.70;100819.88;4925580;29;20684;-90
2022/04/11 01:56:04;;;;;;;13.93;9.52;;;;;;;3.13;86.84;100827.66;4936257;29;20048;-90
2022/04/11 01:58:32;;;;;;;17.75;9.65;;;;;;;2.72;86.28;100757.38;4927444;29;20048;-90
2022/04/11 02:00:59;;;;;;;13.48;9.45;;;;;;;2.68;86.42;100755.69;4932242;29;20493;-90
2022/04/11 02:03:27;;;;;;;13.25;9.52;;;;;;;2.95;86.95;100804.28;4919285;29;20056;-90
2022/04/11 02:05:56;;;;;;;12.98;9.20;;;;;;;3.16;87.05;100826.72;4925871;29;20151;-90
2022/04/11 02:08:24;;;;;;;11.98;8.93;;;;;;;3.08;86.48;100818.97;4915492;29;20420;-91
2022/04/11 02:10:53;;;;;;;13.50;9.38;;;;;;;3.11;86.79;100824.16;4924271;29;20055;-90
2022/04/11 02:13:22;;;;;;;12.13;9.00;;;;;;;2.99;87.58;100795.50;4917821;29;20059;-90
2022/04/11 02:15:50;;;;;;;12.75;8.40;;;;;;;2.87;86.32;100782.53;4929230;29;20445;-91
2022/04/11 02:18:18;;;;;;;15.38;8.70;;;;;;;2.92;86.69;100792.97;4906485;29;20044;-90
2022/04/11 02:20:47;;;;;;;12.57;8.45;;;;;;;3.07;86.57;100818.97;4900893;29;20052;-90
2022/04/11 02:23:27;;;;;;;13.90;8.52;;;;;;;2.55;87.17;100735.75;4920333;29;20370;-91
2022/04/11 02:25:56;;;;;;;11.18;8.45;;;;;;;3.01;87.02;100819.03;4920375;29;20048;-90
2022/04/11 02:28:24;;;;;;;11.27;9.07;;;;;;;2.90;87.49;100798.19;4930032;29;20079;-91
2022/04/11 02:30:53;;;;;;;12.93;7.93;;;;;;;2.90;87.43;100795.59;4927360;29;20056;-90
2022/04/11 02:33:24;;;;;;;13.38;8.70;;;;;;;2.84;87.46;100782.56;4923055;29;20093;-90
2022/04/11 02:35:54;;;;;;;11.18;8.98;;;;;;;2.58;87.65;100733.13;4931579;29;20044;-90
2022/04/11 02:38:22;;;;;;;;;;;;;;;3.01;87.92;100806.81;4926952;29;20048;-91
2022/04/11 02:40:53;;;;;;;10.77;8.02;;;;;;;2.89;88.39;100799.09;4909888;29;19923;-90
2022/04/11 02:43:21;;;;;;;12.95;8.93;;;;;;;2.87;88.22;100786.91;4921066;29;20067;-90
2022/04/11 02:45:49;;;;;;;14.55;9.63;;;;;;;2.80;87.82;100771.28;4931290;29;20052;-91
2022/04/11 02:48:16;;;;;;;11.20;9.07;;;;;;;2.74;87.96;100766.09;4935729;29;20072;-88
2022/04/11 02:50:45;;;;;;;15.63;9.00;;;;;;;2.83;87.98;100773.00;4929641;29;20123;-90
2022/04/11 02:53:13;;;;;;;13.43;9.18;;;;;;;2.95;88.48;100804.28;4923980;29;20055;-91
2022/04/11 02:55:43;;;;;;;12.88;8.60;;;;;;;2.73;88.44;100760.88;4906226;29;20062;-89
2022/04/11 02:58:10;;;;;;;12.20;9.25;;;;;;;2.86;88.17;100772.06;4921347;29;20386;-90
2022/04/11 03:00:37;;;;;;;14.10;8.85;;;;;;;2.56;88.38;100724.41;4922228;29;20485;-91
2022/04/11 03:03:17;;;;;;;11.55;8.38;;;;;;;3.01;87.94;100804.19;4920512;29;20044;-90
2022/04/11 03:05:44;;;;;;;14.95;9.45;;;;;;;2.55;87.75;100724.44;4926188;29;20055;-90
2022/04/11 03:08:15;;;;;;;16.20;10.15;;;;;;;2.54;88.12;100723.56;4918285;29;20526;-91
2022/04/11 03:10:43;;;;;;;13.00;9.68;;;;;;;2.64;88.76;100740.91;4919848;29;20112;-90
2022/04/11 03:13:10;;;;;;;13.30;9.52;;;;;;;2.67;87.95;100745.25;4920697;29;20084;-90
2022/04/11 03:15:37;;;;;;;12.60;9.35;;;;;;;2.46;88.29;100717.56;4920632;29;20116;-91
2022/04/11 03:18:04;;;;;;;14.25;9.45;;;;;;;2.88;88.29;100780.78;4924207;29;20091;-92
2022/04/11 03:20:33;;;;;;;16.35;10.15;;;;;;;2.83;88.09;100783.47;4916428;29;20058;-92
2022/04/11 03:23:03;;;;;;;14.45;9.52;;;;;;;2.69;88.27;100753.94;4919950;29;20059;-93
2022/04/11 03:25:31;;;;;;;16.70;9.07;;;;;;;2.49;88.94;100720.16;4920971;29;20107;-90
2022/04/11 03:28:00;;;;;;;12.70;9.10;;;;;;;2.73;88.46;100766.97;4919395;29;20261;-91
2022/04/11 03:30:27;;;;;;;12.63;9.57;;;;;;;2.67;88.90;100758.34;4920333;29;20052;-91
2022/04/11 03:33:02;;;;;;;13.02;9.05;;;;;;;2.57;88.47;100743.59;4914829;29;20044;-91
2022/04/11 03:35:30;;;;;;;14.80;8.95;;;;;;;2.32;89.08;100712.44;4919616;29;20048;-91
2022/04/11 03:37:57;;;;;;;11.27;9.50;;;;;;;2.30;88.66;100722.03;4935041;29;20051;-91
2022/04/11 03:40:25;;;;;;;13.80;9.75;;;;;;;2.53;89.11;100768.00;4897272;29;20055;-90
2022/04/11 03:42:52;;;;;;;11.20;8.70;;;;;;;2.51;89.47;100761.97;4913187;29;20078;-91
2022/04/11 03:45:24;;;;;;;14.50;8.75;;;;;;;2.41;89.50;100743.72;4919442;29;20048;-91
2022/04/11 03:47:52;;;;;;;13.20;9.55;;;;;;;2.60;90.38;100769.72;4914240;29;20044;-91
2022/04/11 03:50:19;;;;;;;11.98;9.48;;;;;;;2.25;90.35;100707.28;4926754;29;20182;-90
2022/04/11 03:52:46;;;;;;;12.27;9.55;;;;;;;2.47;90.29;100756.75;4920737;29;20056;-91
2022/04/11 03:55:16;;;;;;;14.57;9.73;;;;;;;2.55;89.94;100751.44;4914436;29;20068;-89
2022/04/11 03:57:46;;;;;;;12.73;9.02;;;;;;;2.29;89.62;100709.84;4929719;29;20115;-89
2022/04/11 04:00:13;;;;;;;13.95;9.27;;;;;;;2.42;89.96;100736.75;4940545;29;20048;-90
2022/04/11 04:02:42;;;;;;;13.80;9.48;;;;;;;2.55;89.77;100755.81;4917921;29;20064;-89
2022/04/11 04:05:16;;;;;;;12.10;8.82;;;;;;;2.51;89.61;100746.28;4917726;29;20079;-90
2022/04/11 04:07:46;;;;;;;11.00;8.88;;;;;;;2.31;90.22;100728.13;4923038;29;20052;-90
2022/04/11 04:10:26;;;;;;;10.80;8.35;;;;;;;2.19;89.46;100702.13;4925527;29;20055;-89
2022/04/11 04:12:59;;;;;;;14.18;9.07;;;;;;;2.14;89.54;100709.97;4926212;29;20062;-90
2022/04/11 04:15:26;;;;;;;12.50;8.90;;;;;;;2.30;89.94;100749.91;4922699;29;20056;-90
2022/04/11 04:17:54;;;;;;;12.88;9.23;;;;;;;2.16;89.72;100731.75;4918191;29;20067;-91
2022/04/11 04:20:25;;;;;;;12.40;8.95;;;;;;;1.99;90.01;100716.19;4911060;29;20056;-90
2022/04/11 04:22:56;;;;;;;11.20;9.38;;;;;;;2.17;89.72;100741.31;4923277;29;20062;-90
2022/04/11 04:25:27;;;;;;;12.27;9.15;;;;;;;2.09;90.10;100736.13;4927725;29;20044;-90
2022/04/11 04:27:54;;;;;;;13.13;8.95;;;;;;;2.30;89.90;100774.31;4928497;29;20144;-91
2022/04/11 04:30:21;;;;;;;11.90;9.38;;;;;;;1.89;90.10;100711.03;4930122;29;20096;-91
2022/04/11 04:32:52;;;;;;;11.75;9.02;;;;;;;2.22;90.69;100770.00;4940876;29;20047;-91
2022/04/11 04:35:19;;;;;;;11.27;9.45;;;;;;;1.82;90.84;100706.72;4923094;29;20048;-92
2022/04/11 04:37:46;;;;;;;13.75;8.75;;;;;;;1.73;90.73;100697.22;4922073;29;20054;-92
2022/04/11 04:40:20;;;;;;;12.25;9.52;;;;;;;1.93;91.54;100731.00;4919485;29;20066;-90
2022/04/11 04:42:51;;;;;;;13.55;9.48;;;;;;;1.89;91.52;100721.50;4915817;29;20056;-92
2022/04/11 04:45:19;;;;;;;16.00;10.05;;;;;;;1.87;91.38;100723.25;4921238;29;20052;-91
2022/04/11 04:47:49;;;;;;;13.25;9.85;;;;;;;1.66;91.86;100696.38;4919803;29;20084;-90
2022/04/11 04:50:18;;;;;;;13.48;9.55;;;;;;;1.78;91.71;100724.16;4920377;29;20139;-95
2022/04/11 04:52:48;;;;;;;12.00;9.30;;;;;;;2.11;91.70;100763.13;4916970;29;20052;-91
2022/04/11 04:55:18;;;;;;;12.20;8.73;;;;;;;1.90;91.47;100726.69;4923744;29;20611;-91
2022/04/11 04:57:46;;;;;;;11.82;9.02;;;;;;;1.93;91.47;100733.63;4916096;29;20049;-89
2022/04/11 05:00:15;;;;;;;13.55;8.88;;;;;;;2.01;91.07;100761.44;4912701;29;20206;-94
2022/04/11 05:02:50;;;;;;;10.95;8.32;;;;;;;1.86;91.86;100735.44;4922885;29;20048;-92
2022/04/11 05:05:19;;;;;;;10.68;8.60;;;;;;;1.61;91.54;100698.13;4923998;29;20063;-93
2022/04/11 05:07:52;;;;;;;17.05;9.68;;;;;;;1.76;91.72;100724.16;4886277;29;20056;-89
2022/04/11 05:10:19;;;;;;;11.23;8.90;;;;;;;1.73;91.33;100723.34;4925512;29;20044;-90
2022/04/11 05:12:47;;;;;;;12.82;9.52;;;;;;;1.94;91.78;100757.13;4922123;29;20082;-91
2022/04/11 05:15:15;;;;;;;11.15;8.48;;;;;;;1.86;91.80;100742.41;4925864;29;20048;-87
2022/04/11 05:17:44;;;;;;;12.13;9.07;;;;;;;1.86;91.34;100731.94;4914132;29;20556;-90
2022/04/11 05:20:11;;;;;;;12.15;8.68;;;;;;;1.75;91.12;100721.53;4921108;29;20073;-90
2022/04/11 05:22:39;;;;;;;12.43;9.48;;;;;;;1.84;90.89;100734.56;4912453;29;20052;-91
2022/04/11 05:25:09;;;;;;;11.80;9.10;;;;;;;2.12;90.96;100779.66;4917704;29;20068;-91
2022/04/11 05:27:37;;;;;;;11.68;8.30;;;;;;;1.87;90.96;100741.53;4916683;29;20055;-91
2022/04/11 05:30:06;;;;;;;11.38;8.80;;;;;;;1.86;90.69;100739.78;4915074;29;20143;-91
2022/04/11 05:32:34;;;;;;;11.82;8.65;;;;;;;2.11;90.68;100775.31;4901537;29;20076;-92
2022/04/11 05:35:01;;;;;;;12.80;8.77;;;;;;;1.89;91.00;100737.16;4918238;29;20063;-91
2022/04/11 05:37:31;;;;;;;12.35;9.45;;;;;;;2.16;90.50;100777.91;4923873;29;20052;-91
2022/04/11 05:39:59;;;;;;;12.77;9.25;;;;;;;2.00;90.41;100748.41;4913609;29;20047;-90
2022/04/11 05:42:26;;;;;;;11.82;8.80;;;;;;;2.17;90.39;100764.81;4920267;29;20052;-90
2022/04/11 05:44:55;;;;;;;12.95;9.30;;;;;;;2.20;90.08;100766.56;4929051;29;20060;-91
2022/04/11 05:47:24;;;;;;;12.20;9.18;;;;;;;2.21;90.02;100753.44;4929476;29;20052;-91
2022/04/11 05:49:51;;;;;;;12.18;8.73;;;;;;;2.26;89.59;100761.25;4928289;29;20088;-91
2022/04/11 05:52:19;;;;;;;12.63;8.82;;;;;;;2.29;89.32;100750.78;4930255;29;20056;-92
2022/04/11 05:54:46;;;;;;;14.10;9.13;;;;;;;2.45;89.34;100766.34;4910199;29;20080;-92
2022/04/11 05:57:13;;;;;;;11.10;8.00;;;;;;;2.71;88.83;100797.50;4926204;29;20052;-90
2022/04/11 05:59:40;;;;;;;12.23;8.20;;;;;;;2.73;88.67;100773.94;4933750;29;20071;-92
2022/04/11 06:02:10;;;;;;;10.20;8.10;;;;;;;2.68;89.56;100754.81;4926528;29;20056;-91
2022/04/11 06:04:39;;;;;;;11.43;9.13;;;;;;;2.99;88.74;100792.03;4929989;29;20079;-90
2022/04/11 06:07:08;;;;;;;10.38;8.07;;;;;;;2.79;87.42;100746.00;4919966;29;20100;-92
2022/04/11 06:09:35;;;;;;;11.68;8.02;;;;;;;3.07;86.79;100777.09;4920114;29;20138;-92
2022/04/11 06:12:14;;;;;;;15.85;8.32;;;;;;;3.03;86.54;100765.81;4925397;29;20112;-92
2022/04/11 06:14:44;;;;;;;10.48;8.05;;;;;;;3.07;85.64;100746.59;4928824;29;20058;-91
2022/04/11 06:17:13;;;;;;;9.80;7.78;;;;;;;3.22;86.82;100749.91;4924524;29;20083;-92
2022/04/11 06:19:55;;;;;;;11.05;7.25;;;;;;;3.34;83.42;100737.53;4925609;29;20056;-91
2022/04/11 06:22:26;;;;;;;10.23;7.20;;;;;;;3.35;83.79;100728.81;4918808;29;20051;-90
2022/04/11 06:25:01;;;;;;;11.02;7.82;;;;;;;3.63;85.50;100746.78;4920627;29;20053;-91
2022/04/11 06:27:29;;;;;;;9.15;7.32;;;;;;;3.78;84.39;100750.06;4926159;29;20051;-92
2022/04/11 06:30:02;;;;;;;9.45;7.25;;;;;;;4.08;82.06;100774.13;4928555;29;20112;-94
2022/04/11 06:32:46;;;;;;;9.55;7.07;;;;;;;3.95;80.43;100752.44;4928707;28;20048;-95
2022/04/11 06:35:18;;;;;;;10.13;6.88;;;;;;;3.83;79.81;100718.56;4913503;29;20486;-94
2022/04/11 06:37:45;;;;;;;12.35;7.15;;;;;;;3.92;79.13;100722.81;4924485;29;20067;-94
2022/04/11 06:40:17;;;;;;;11.35;6.85;;;;;;;4.28;79.25;100772.03;4923263;29;20052;-92
2022/04/11 06:42:45;;;;;;;11.30;7.20;;;;;;;4.18;79.60;100749.50;4903583;29;20044;-92
2022/04/11 06:45:14;;;;;;;10.70;7.40;;;;;;;4.28;78.96;100753.69;4921310;29;20055;-92
2022/04/11 06:47:47;;;;;;;7.65;6.85;;;;;;;4.47;78.41;100770.00;4921739;29;20052;-93
2022/04/11 06:50:43;;;;;;;11.45;7.15;;;;;;;4.22;78.37;100710.13;4919659;29;20090;-92
2022/04/11 06:53:35;;;;;;;11.80;7.13;;;;;;;4.71;77.96;100772.25;4931989;29;21153;-91
2022/04/11 06:56:02;;;;;;;10.40;7.40;;;;;;;4.71;77.29;100764.38;4896511;29;20057;-90
2022/04/11 06:58:35;;;;;;;10.48;7.30;;;;;;;4.65;76.87;100729.50;4909591;29;20493;-91
2022/04/11 07:01:04;;;;;;;9.60;7.38;;;;;;;4.83;76.42;100753.66;4903667;29;20084;-91
2022/04/11 07:03:32;;;;;;;10.38;6.70;;;;;;;4.74;75.21;100714.44;4896211;29;20053;-93
2022/04/11 07:06:01;;;;;;;11.10;7.13;;;;;;;5.09;74.91;100758.41;4901736;29;20048;-91
2022/04/11 07:08:28;;;;;;;8.35;6.68;;;;;;;5.32;74.83;100783.38;4902732;29;20442;-93
2022/04/11 07:11:01;;;;;;;8.80;6.80;;;;;;;5.20;74.51;100745.94;4903146;29;20056;-93
2022/04/11 07:13:39;;;;;;;11.38;7.20;;;;;;;5.22;72.69;100709.16;4909327;29;20079;-92
2022/04/11 07:16:21;;;;;;;9.68;7.65;;;;;;;5.48;72.62;100734.91;4916118;29;20067;-91
2022/04/11 07:18:49;;;;;;;10.60;7.78;;;;;;;5.80;71.89;100748.22;4904005;29;20052;-92
2022/04/11 07:21:29;;;;;;;9.82;7.10;;;;;;;5.80;72.56;100721.09;4902825;29;20052;-92
2022/04/11 07:24:02;;;;;;;8.98;7.28;;;;;;;5.86;69.82;100708.66;4901825;29;20045;-93
2022/04/11 07:26:45;;;;;;;10.00;6.47;;;;;;;6.19;70.43;100727.19;4903900;29;20056;-94
2022/04/11 07:29:17;;;;;;;11.07;6.50;;;;;;;6.47;69.85;100736.16;4904319;29;20165;-94
2022/04/11 07:31:47;;;;;;;10.00;5.93;;;;;;;6.46;67.99;100691.47;4902063;29;20548;-93
2022/04/11 07:34:23;;;;;;;8.02;6.05;;;;;;;6.94;67.83;100741.97;4912039;29;20059;-93
2022/04/11 07:37:03;;;;;;;8.00;5.93;;;;;;;7.12;65.84;100744.09;4922921;29;20117;-90
2022/04/11 07:39:44;;;;;;;7.68;6.00;;;;;;;7.07;65.38;100719.69;4899832;29;20064;-93
2022/04/11 07:42:31;;;;;;;8.40;5.85;;;;;;;7.04;64.54;100690.81;4899389;29;20045;-91
2022/04/11 07:44:59;;;;;;;9.98;5.88;;;;;;;7.32;64.48;100731.25;4918045;29;20120;-91
2022/04/11 07:47:40;;;;;;;;;;;;;;;7.80;64.91;100759.72;4918625;29;20052;-91
2022/04/11 07:50:09;;;;;;;10.18;6.90;;;;;;;7.60;62.33;100690.91;4915170;29;19927;-90
2022/04/11 07:52:42;;;;;;;7.32;5.70;;;;;;;7.66;62.37;100688.97;4914753;29;20088;-92
2022/04/11 07:55:24;;;;;;;6.20;5.60;;;;;;;8.23;59.76;100766.31;4912070;29;20494;-94
2022/04/11 07:58:14;;;;;;;7.97;5.43;;;;;;;8.09;60.07;100706.94;4920429;29;20489;-91
2022/04/11 08:00:43;;;;;;;7.55;5.88;;;;;;;8.49;58.51;100728.59;4920626;29;20055;-94
2022/04/11 08:03:11;;;;;;;12.60;5.65;;;;;;;8.56;57.98;100704.56;4925299;29;20056;-92
2022/04/11 08:05:40;;;;;;;7.53;5.20;;;;;;;8.75;56.48;100691.59;4927904;29;20068;-94
2022/04/11 08:08:10;;;;;;;7.68;4.57;;;;;;;8.83;53.40;100681.63;4921949;29;20055;-94
2022/04/11 08:10:43;;;;;;;7.53;5.20;;;;;;;8.80;53.42;100679.13;4935372;29;20051;-92
2022/04/11 08:13:48;;;;;;;7.55;5.28;;;;;;;9.27;53.53;100734.69;4929383;29;20056;-93
2022/04/11 08:16:16;;;;;;;9.50;6.13;;;;;;;9.33;53.97;100706.22;4928680;29;20044;-93
2022/04/11 08:18:43;;;;;;;10.45;5.97;;;;;;;9.60;52.73;100745.78;4927242;29;20081;-93
2022/04/11 08:21:12;;;;;;;8.73;5.57;;;;;;;9.51;52.83;100712.63;4920273;29;20501;-90
2022/04/11 08:23:45;;;;;;;14.05;6.05;;;;;;;9.75;52.86;100727.56;4922058;29;20063;-92
2022/04/11 08:26:13;;;;;;;7.90;5.78;;;;;;;9.91;52.20;100730.47;4919750;29;20056;-91
2022/04/11 08:28:41;;;;;;;8.48;5.30;;;;;;;10.10;51.63;100726.16;4918958;29;20055;-93
2022/04/11 08:31:24;;;;;;;;;;;;;;;10.16;51.82;100738.31;4915954;29;20115;-91
2022/04/11 08:33:54;;;;;;;6.78;5.25;;;;;;;10.15;50.80;100733.94;4911567;29;20081;-92
2022/04/11 08:36:25;;;;;;;9.80;5.93;;;;;;;10.29;50.74;100728.97;4914665;29;20048;-92
2022/04/11 08:39:01;;;;;;;8.70;5.65;;;;;;;10.09;49.61;100647.72;4900951;29;20339;-90
2022/04/11 08:41:42;;;;;;;6.40;5.32;;;;;;;10.39;49.67;100660.66;4923330;29;20047;-92
2022/04/11 08:44:15;;;;;;;5.30;4.78;;;;;;;10.77;49.02;100691.66;4921254;29;20048;-92
2022/04/11 08:47:02;;;;;;;8.73;4.82;;;;;;;10.95;47.75;100692.66;4925355;29;20052;-91
2022/04/11 08:49:53;;;;;;;6.72;4.97;;;;;;;10.80;47.23;100645.63;4915995;29;20115;-92
2022/04/11 08:52:25;;;;;;;9.45;5.03;;;;;;;10.89;46.28;100664.63;4915939;29;20060;-90
2022/04/11 08:54:54;;;;;;;5.67;4.10;;;;;;;11.31;45.77;100721.09;4919419;29;20132;-92
2022/04/11 08:57:33;;;;;;;7.68;4.85;;;;;;;10.89;45.97;100656.66;4916534;29;20075;-91
2022/04/11 09:00:14;;;;;;;5.78;4.55;;;;;;;11.21;45.86;100692.34;4900047;29;20077;-92
2022/04/11 09:02:45;;;;;;;9.05;4.70;;;;;;;11.37;45.46;100705.75;4913647;29;20048;-92
2022/04/11 09:05:41;;;;;;;7.65;4.00;;;;;;;11.36;45.25;100660.75;4908892;29;20461;-91
2022/04/11 09:08:12;;;;;;;6.35;4.03;;;;;;;11.72;43.91;100682.94;4916524;29;20048;-94
2022/04/11 09:10:43;;;;;;;4.78;3.60;;;;;;;11.71;42.87;100677.69;4921756;29;20062;-92
2022/04/11 09:13:17;;;;;;;6.55;4.25;;;;;;;11.74;44.03;100656.34;4919329;29;20048;-93
2022/04/11 09:16:11;;;;;;;6.18;3.85;;;;;;;12.34;41.79;100659.59;4922942;29;20055;-91
2022/04/11 09:18:52;;;;;;;5.28;3.17;;;;;;;13.41;39.15;100674.38;4929468;29;20048;-92
2022/04/11 09:21:28;;;;;;;6.40;3.00;;;;;;;13.47;38.34;100617.31;4917185;29;20060;-92
2022/04/11 09:24:19;;;;;;;6.47;3.10;;;;;;;13.71;37.77;100615.94;4925585;29;20059;-92
2022/04/11 09:26:54;;;;;;;5.25;3.00;;;;;;;14.43;36.84;100615.34;4922154;29;20050;-92
2022/04/11 09:29:42;;;;;;;4.47;2.30;;;;;;;15.43;32.19;100637.59;4923164;29;20044;-94
2022/04/11 09:32:23;;;;;;;2.92;1.92;;;;;;;15.31;32.21;100620.56;4877421;29;20068;-91
2022/04/11 09:34:55;;;;;;;2.67;1.88;;;;;;;15.93;31.13;100597.00;4937507;29;20126;-91
2022/04/11 09:37:24;;;;;;;3.75;2.00;;;;;;;16.29;29.38;100647.16;4927231;29;20056;-92
2022/04/11 09:40:02;;;;;;;3.28;1.77;;;;;;;16.01;29.57;100604.53;4926944;29;20512;-95
2022/04/11 09:42:31;;;;;;;3.85;1.88;;;;;;;16.53;29.71;100665.19;4920547;29;20048;-93
2022/04/11 09:45:00;;;;;;;3.05;1.80;;;;;;;17.16;27.97;100647.38;4916512;29;20478;-91
2022/04/11 09:48:00;;;;;;;3.42;1.92;;;;;;;17.53;28.27;100618.00;4901002;29;20424;-91
2022/04/11 09:50:36;;;;;;;3.90;1.90;;;;;;;18.34;26.92;100653.09;4916912;29;20200;-91
2022/04/11 09:53:15;;;;;;;3.63;1.90;;;;;;;18.58;26.42;100653.94;4917044;29;20052;-92
2022/04/11 09:55:55;;;;;;;5.13;1.60;;;;;;;19.01;26.74;100650.66;4908894;29;20072;-92
2022/04/11 09:58:23;;;;;;;3.47;2.00;;;;;;;19.00;25.41;100626.63;4898164;29;20449;-92
2022/04/11 10:00:52;;;;;;;4.80;1.90;;;;;;;19.37;25.23;100629.91;4900924;29;20052;-93
2022/04/11 10:03:24;;;;;;;2.28;1.80;;;;;;;19.36;24.41;100615.63;4884513;29;20560;-93
2022/04/11 10:06:03;;;;;;;3.20;1.30;;;;;;;19.34;23.79;100636.41;4899975;29;20049;-91
2022/04/11 10:08:58;;;;;;;3.05;1.48;;;;;;;18.87;24.67;100575.75;4896867;29;20056;-94
2022/04/11 10:11:45;;;;;;;4.85;1.63;;;;;;;19.79;23.78;100598.78;4894568;29;20347;-93
2022/04/11 10:14:37;;;;;;;2.38;1.50;;;;;;;19.67;23.67;100579.16;4903960;29;20059;-93
2022/04/11 10:17:28;;;;;;;2.67;1.70;;;;;;;19.57;23.88;100559.38;4901930;29;20053;-93
2022/04/11 10:20:36;;;;;;;2.80;1.60;;;;;;;20.09;22.12;100555.06;4911699;29;20132;-92
2022/04/11 10:24:04;;;;;;;4.07;1.58;;;;;;;20.84;23.07;100603.34;4900184;29;20045;-91
2022/04/11 10:26:48;;;;;;;2.90;1.80;;;;;;;21.26;21.51;100594.22;4905885;29;20491;-91
2022/04/11 10:29:39;;;;;;;2.17;1.50;;;;;;;21.08;21.44;100605.75;4907918;29;20060;-95
2022/04/11 10:32:27;;;;;;;2.90;1.77;;;;;;;21.04;20.95;100578.22;4882603;29;20125;-92
2022/04/11 10:35:09;;;;;;;3.60;1.70;;;;;;;20.56;21.49;100542.97;4887760;29;20434;-94
2022/04/11 10:38:15;;;;;;;3.00;1.95;;;;;;;20.43;22.22;100569.22;4891951;29;20049;-91
2022/04/11 10:40:48;;;;;;;3.37;2.00;;;;;;;20.69;21.92;100601.97;4886921;29;20060;-94
2022/04/11 10:44:10;;;;;;;;;;;;;;;20.57;22.51;100598.50;4885165;29;20079;-94
2022/04/11 10:47:07;;;;;;;3.70;1.70;;;;;;;20.50;22.04;100590.09;4879156;29;19923;-93
2022/04/11 10:49:50;;;;;;;4.22;1.60;;;;;;;20.69;22.15;100580.44;4883195;29;20045;-93
2022/04/11 10:52:41;;;;;;;3.25;1.35;;;;;;;21.71;21.04;100572.25;4886890;29;20087;-95
2022/04/11 10:55:12;;;;;;;2.45;1.58;;;;;;;22.27;20.00;100577.00;4885350;29;20084;-92
2022/04/11 10:58:01;;;;;;;2.85;1.88;;;;;;;21.93;19.09;100506.44;4894025;29;20056;-94
2022/04/11 11:00:37;;;;;;;1.98;1.40;;;;;;;22.19;19.18;100510.28;4905100;29;20056;-93
2022/04/11 11:03:13;;;;;;;1.80;1.20;;;;;;;22.10;19.61;100542.66;4917833;29;20052;-93
2022/04/11 11:06:19;;;;;;;2.42;1.58;;;;;;;22.57;19.38;100557.94;4936613;29;20050;-93
2022/04/11 11:08:51;;;;;;;2.50;1.60;;;;;;;21.82;19.37;100531.69;4929948;29;20055;-94
2022/04/11 11:11:34;;;;;;;1.92;1.42;;;;;;;21.74;19.02;100488.41;4923809;29;20056;-94
2022/04/11 11:14:54;;;;;;;3.63;1.50;;;;;;;22.30;18.59;100485.84;4931876;29;20139;-96
2022/04/11 11:18:25;;;;;;;2.88;1.60;;;;;;;23.17;17.93;100487.41;4971167;23;20044;-96
2022/04/11 11:21:00;;;;;;;2.85;1.30;;;;;;;23.70;17.87;100480.25;4998613;23;20074;-92
2022/04/11 11:24:11;;;;;;;2.17;1.30;;;;;;;25.24;16.74;100537.38;4933607;29;20055;-94
2022/04/11 11:27:03;;;;;;;2.20;0.90;;;;;;;25.11;16.95;100508.03;4984676;23;20056;-92
2022/04/11 11:29:34;;;;;;;3.83;1.77;;;;;;;24.63;16.40;100467.13;4927607;29;20143;-89
2022/04/11 11:32:21;;;;;;;2.35;1.48;;;;;;;24.17;17.50;100460.19;4924326;29;20047;-93
2022/04/11 11:35:09;;;;;;;2.10;1.38;;;;;;;24.75;16.53;100465.81;4920906;29;20063;-95
2022/04/11 11:38:05;;;;;;;2.17;1.30;;;;;;;24.19;17.20;100501.47;4926180;29;20052;-96
2022/04/11 11:41:22;;;;;;;4.28;1.50;;;;;;;23.84;17.25;100461.78;4831602;29;20114;-96
2022/04/11 11:44:09;;;;;;;1.85;1.50;;;;;;;24.51;16.77;100501.75;4829047;29;20050;-95
2022/04/11 11:47:12;;;;;;;2.67;1.50;;;;;;;23.93;17.05;100475.22;4825765;29;20050;-93
2022/04/11 11:50:27;;;;;;;3.30;1.48;;;;;;;24.13;16.50;100446.97;4837362;29;20054;-91
2022/04/11 11:53:19;;;;;;;2.53;1.30;;;;;;;24.99;15.88;100508.50;4836228;29;20143;-94
2022/04/11 11:55:56;;;;;;;3.78;1.52;;;;;;;24.91;16.50;100508.41;4837062;29;20066;-93
2022/04/11 11:58:40;;;;;;;3.88;1.50;;;;;;;24.47;16.52;100478.72;4813458;29;20062;-95
2022/04/11 12:01:31;;;;;;;2.90;1.48;;;;;;;23.67;17.16;100485.13;4819223;29;20146;-94